Terminal Aerodrome Forecast
Issued by NWS

Home | Current Version | Previous Version | Text Only | Print | Product List | Glossary On
Versions: 1 2 3 4 5 6 7 8 9 10 11 12 13 14 15 16
000
FTUS46 KSEW 190540
TAFCLM
TAF
KCLM 190540Z 1906/2006 26005KT 6SM -RA BR OVC045
     FM190900 26005KT 5SM -SHRA BKN020 OVC040
     FM191300 VRB03KT 5SM BR VCSH BKN020 OVC040
     FM192100 VRB03KT P6SM -SHRA BKN030 BKN050=

USA.gov is the U.S. government's official web portal to all federal, state and local government web resources and services.